createdAt,value
2023-05-21T00:00:31.258Z,14.40
2023-05-21T00:03:06.281Z,12.47
2023-05-21T00:05:34.540Z,13.13
2023-05-21T00:08:04.109Z,13.30
2023-05-21T00:10:33.623Z,14.10
2023-05-21T00:13:05.127Z,14.60
2023-05-21T00:15:34.357Z,14.77
2023-05-21T00:18:05.131Z,13.50
2023-05-21T00:20:35.586Z,13.70
2023-05-21T00:23:13.183Z,13.43
2023-05-21T00:25:40.970Z,14.13
2023-05-21T00:28:13.400Z,13.93
2023-05-21T00:30:43.132Z,13.90
2023-05-21T00:33:14.789Z,13.80
2023-05-21T00:35:45.064Z,14.10
2023-05-21T00:38:16.949Z,14.90
2023-05-21T00:40:45.197Z,15.17
2023-05-21T00:43:17.386Z,14.40
2023-05-21T00:45:49.519Z,14.20
2023-05-21T00:48:18.390Z,15.00
2023-05-21T00:50:47.373Z,15.10
2023-05-21T00:53:21.366Z,14.40
2023-05-21T00:55:50.146Z,15.13
2023-05-21T00:58:20.028Z,15.70
2023-05-21T01:00:48.425Z,14.87
2023-05-21T01:03:17.401Z,15.53
2023-05-21T01:05:48.022Z,15.77
2023-05-21T01:08:17.030Z,15.23
2023-05-21T01:10:48.353Z,15.50
2023-05-21T01:13:17.850Z,16.30
2023-05-21T01:15:48.525Z,14.87
2023-05-21T01:18:27.671Z,15.40
2023-05-21T01:20:55.558Z,15.23
2023-05-21T01:26:30.482Z,14.43
2023-05-21T01:28:58.280Z,15.33
2023-05-21T01:31:34.645Z,15.17
2023-05-21T01:34:09.350Z,15.70
2023-05-21T01:36:45.887Z,14.80
2023-05-21T01:40:04.605Z,14.13
2023-05-21T01:42:38.218Z,15.90
2023-05-21T01:45:11.161Z,16.60
2023-05-21T01:47:41.211Z,16.57
2023-05-21T01:50:14.281Z,15.87
2023-05-21T01:52:53.259Z,16.10
2023-05-21T01:55:25.520Z,16.00
2023-05-21T01:57:57.422Z,16.10
2023-05-21T02:00:31.191Z,16.37
2023-05-21T02:02:59.817Z,15.97
2023-05-21T02:05:27.787Z,16.17
2023-05-21T02:07:55.975Z,15.80
2023-05-21T02:10:24.204Z,15.73
2023-05-21T02:12:52.684Z,15.60
2023-05-21T02:15:22.416Z,15.40
2023-05-21T02:17:51.287Z,15.80
2023-05-21T02:20:20.777Z,15.90
2023-05-21T02:22:53.590Z,16.87
2023-05-21T02:25:21.916Z,16.97
2023-05-21T02:27:53.527Z,16.03
2023-05-21T02:30:23.596Z,16.30
2023-05-21T02:32:51.541Z,16.90
2023-05-21T02:35:21.053Z,15.97
2023-05-21T02:38:14.805Z,16.07
2023-05-21T02:40:43.857Z,16.43
2023-05-21T02:43:12.917Z,16.73
2023-05-21T02:45:43.209Z,16.50
2023-05-21T02:48:11.699Z,16.00
2023-05-21T02:50:41.309Z,16.57
2023-05-21T02:53:09.814Z,17.07
2023-05-21T02:55:38.303Z,16.07
2023-05-21T02:58:06.502Z,15.47
2023-05-21T03:00:34.603Z,16.43
2023-05-21T03:03:04.588Z,16.67
2023-05-21T03:05:32.555Z,18.00
2023-05-21T03:08:01.088Z,17.20
2023-05-21T03:10:31.093Z,17.23
2023-05-21T03:13:05.339Z,16.70
2023-05-21T03:15:37.143Z,18.50
2023-05-21T03:18:08.265Z,18.20
2023-05-21T03:20:40.742Z,19.07
2023-05-21T03:23:16.246Z,19.50
2023-05-21T03:25:46.139Z,18.97
2023-05-21T03:28:14.870Z,17.40
2023-05-21T03:30:46.586Z,17.93
2023-05-21T03:33:16.629Z,17.30
2023-05-21T03:35:45.009Z,18.20
2023-05-21T03:38:13.644Z,16.57
2023-05-21T03:40:41.679Z,16.47
2023-05-21T03:43:10.104Z,16.87
2023-05-21T03:45:38.586Z,15.43
2023-05-21T03:48:07.808Z,17.53
2023-05-21T03:50:37.542Z,16.10
2023-05-21T03:53:06.151Z,14.40
2023-05-21T03:55:36.029Z,15.73
2023-05-21T03:58:04.597Z,16.80
2023-05-21T04:00:42.981Z,16.23
2023-05-21T04:03:15.842Z,14.80
2023-05-21T04:05:48.124Z,17.20
2023-05-21T04:08:21.213Z,16.07
2023-05-21T04:10:50.702Z,15.77
2023-05-21T04:13:18.680Z,14.97
2023-05-21T04:15:46.830Z,16.03
2023-05-21T04:18:16.950Z,15.90
2023-05-21T04:20:50.385Z,15.20
2023-05-21T04:23:18.291Z,16.50
2023-05-21T04:25:50.812Z,15.30
2023-05-21T04:28:22.697Z,16.40
2023-05-21T04:30:54.325Z,15.80
2023-05-21T04:33:22.637Z,15.40
2023-05-21T04:36:01.033Z,16.73
2023-05-21T04:38:29.264Z,16.27
2023-05-21T04:40:58.777Z,16.80
2023-05-21T04:43:26.786Z,16.27
2023-05-21T04:45:55.569Z,16.10
2023-05-21T04:48:24.835Z,16.50
2023-05-21T04:50:56.153Z,16.83
2023-05-21T04:53:26.584Z,15.90
2023-05-21T04:55:54.454Z,17.10
2023-05-21T04:58:23.668Z,17.40
2023-05-21T05:00:54.811Z,16.07
2023-05-21T05:03:23.669Z,16.07
2023-05-21T05:05:52.173Z,16.93
2023-05-21T05:08:23.630Z,15.87
2023-05-21T05:10:51.902Z,15.67
2023-05-21T05:13:21.793Z,18.10
2023-05-21T05:15:54.455Z,16.30
2023-05-21T05:18:23.020Z,15.60
2023-05-21T05:20:52.044Z,16.43
2023-05-21T05:23:21.498Z,15.40
2023-05-21T05:25:49.618Z,16.23
2023-05-21T05:28:17.706Z,16.30
2023-05-21T05:30:46.562Z,16.23
2023-05-21T05:33:14.603Z,16.00
2023-05-21T05:35:44.077Z,15.97
2023-05-21T05:38:15.805Z,16.87
2023-05-21T05:40:46.497Z,16.07
2023-05-21T05:43:15.924Z,14.60
2023-05-21T05:45:44.979Z,16.10
2023-05-21T05:48:13.085Z,16.27
2023-05-21T05:50:43.923Z,16.93
2023-05-21T05:53:19.331Z,16.80
2023-05-21T05:55:51.902Z,14.73
2023-05-21T05:58:22.885Z,16.73
2023-05-21T06:00:52.459Z,15.53
2023-05-21T06:03:21.221Z,17.60
2023-05-21T06:05:50.706Z,16.77
2023-05-21T06:08:21.762Z,16.67
2023-05-21T06:10:52.167Z,16.77
2023-05-21T06:13:23.009Z,17.83
2023-05-21T06:15:51.594Z,17.07
2023-05-21T06:18:21.472Z,17.33
2023-05-21T06:20:49.472Z,17.90
2023-05-21T06:23:20.938Z,16.80
2023-05-21T06:25:50.076Z,16.40
2023-05-21T06:28:19.752Z,17.70
2023-05-21T06:30:47.686Z,17.20
2023-05-21T06:33:17.192Z,18.57
2023-05-21T06:35:48.707Z,16.93
2023-05-21T06:38:16.612Z,17.10
2023-05-21T06:40:47.881Z,18.17
2023-05-21T06:43:20.503Z,17.23
2023-05-21T06:45:48.722Z,18.23
2023-05-21T06:48:17.089Z,17.07
2023-05-21T06:50:46.162Z,17.90
2023-05-21T06:53:16.296Z,16.70
2023-05-21T06:55:46.276Z,16.90
2023-05-21T06:58:14.249Z,16.47
2023-05-21T07:00:44.474Z,16.70
2023-05-21T07:03:12.535Z,17.60
2023-05-21T07:05:41.740Z,16.40
2023-05-21T07:08:12.025Z,17.20
2023-05-21T07:10:43.737Z,18.60
2023-05-21T07:13:13.407Z,16.57
2023-05-21T07:15:42.241Z,16.50
2023-05-21T07:18:13.986Z,17.30
2023-05-21T07:20:43.518Z,17.50
2023-05-21T07:23:13.805Z,16.70
2023-05-21T07:25:42.259Z,16.30
2023-05-21T07:28:11.441Z,16.07
2023-05-21T07:30:40.604Z,16.90
2023-05-21T07:33:10.801Z,18.37
2023-05-21T07:35:48.715Z,18.50
2023-05-21T07:38:22.618Z,16.07
2023-05-21T07:40:51.697Z,17.10
2023-05-21T07:43:19.692Z,18.70
2023-05-21T07:45:49.408Z,16.33
2023-05-21T07:48:21.422Z,17.60
2023-05-21T07:50:56.194Z,17.00
2023-05-21T07:53:27.657Z,16.00
2023-05-21T07:55:56.948Z,17.27
2023-05-21T07:58:42.921Z,16.93
2023-05-21T08:01:12.946Z,17.10
2023-05-21T08:03:42.340Z,15.40
2023-05-21T08:06:18.510Z,15.90
2023-05-21T08:08:47.507Z,15.10
2023-05-21T08:11:18.259Z,14.60
2023-05-21T08:13:46.291Z,14.20
2023-05-21T08:16:18.050Z,14.93
2023-05-21T08:18:48.327Z,14.70
2023-05-21T08:21:21.061Z,15.33
2023-05-21T08:23:49.610Z,14.20
2023-05-21T08:26:18.450Z,15.17
2023-05-21T08:28:49.556Z,13.10
2023-05-21T08:31:20.166Z,11.77
2023-05-21T08:33:56.811Z,12.30
2023-05-21T08:36:28.095Z,13.47
2023-05-21T08:38:56.314Z,14.63
2023-05-21T08:41:25.404Z,13.73
2023-05-21T08:43:57.957Z,13.90
2023-05-21T08:46:33.531Z,13.00
2023-05-21T08:49:07.470Z,13.33
2023-05-21T08:51:38.950Z,14.10
2023-05-21T08:54:11.470Z,14.17
2023-05-21T08:56:47.211Z,13.30
2023-05-21T08:59:23.623Z,13.30
2023-05-21T09:01:52.800Z,14.37
2023-05-21T09:04:23.566Z,14.93
2023-05-21T09:06:54.455Z,14.50
2023-05-21T09:09:32.198Z,15.17
2023-05-21T09:12:01.144Z,13.47
2023-05-21T09:14:38.252Z,13.00
2023-05-21T09:17:07.872Z,14.47
2023-05-21T09:19:36.784Z,12.40
2023-05-21T09:22:07.434Z,14.37
2023-05-21T09:24:36.551Z,14.10
2023-05-21T09:27:10.210Z,13.03
2023-05-21T09:29:39.086Z,13.77
2023-05-21T09:32:12.310Z,13.20
2023-05-21T09:34:40.812Z,11.93
2023-05-21T09:37:20.180Z,13.03
2023-05-21T09:39:55.855Z,12.27
2023-05-21T09:42:25.229Z,12.80
2023-05-21T09:44:54.881Z,13.00
2023-05-21T09:47:24.581Z,12.00
2023-05-21T09:49:52.411Z,11.10
2023-05-21T09:52:30.211Z,12.43
2023-05-21T09:55:00.322Z,12.40
2023-05-21T09:57:28.884Z,9.90
2023-05-21T09:59:59.362Z,11.53
2023-05-21T10:02:27.978Z,11.07
2023-05-21T10:04:58.186Z,11.47
2023-05-21T10:07:37.076Z,12.10
2023-05-21T10:10:09.614Z,11.10
2023-05-21T10:12:41.952Z,11.00
2023-05-21T10:15:14.768Z,10.43
2023-05-21T10:17:44.063Z,11.83
2023-05-21T10:20:17.699Z,10.60
2023-05-21T10:22:52.927Z,11.40
2023-05-21T10:25:21.803Z,12.40
2023-05-21T10:27:53.059Z,11.40
2023-05-21T10:30:27.610Z,12.30
2023-05-21T10:32:59.694Z,10.83
2023-05-21T10:35:30.214Z,10.70
2023-05-21T10:38:05.402Z,11.03
2023-05-21T10:40:36.780Z,11.30
2023-05-21T10:43:37.967Z,10.70
2023-05-21T10:46:25.775Z,11.30
2023-05-21T10:49:22.620Z,10.20
2023-05-21T10:52:00.385Z,11.07
2023-05-21T10:54:57.014Z,12.00
2023-05-21T10:57:47.489Z,12.30
2023-05-21T11:00:18.362Z,10.90
2023-05-21T11:02:49.569Z,11.23
2023-05-21T11:05:20.785Z,11.20
2023-05-21T11:07:54.372Z,11.67
2023-05-21T11:10:40.786Z,11.53
2023-05-21T11:13:20.560Z,9.43
2023-05-21T11:16:09.866Z,10.97
2023-05-21T11:19:05.533Z,11.20
2023-05-21T11:21:39.456Z,10.80
2023-05-21T11:24:11.472Z,12.20
2023-05-21T11:27:05.008Z,11.37
2023-05-21T11:29:44.718Z,11.60
2023-05-21T11:32:32.030Z,11.07
2023-05-21T11:35:03.264Z,11.37
2023-05-21T11:37:35.209Z,10.70
2023-05-21T11:40:31.319Z,10.90
2023-05-21T11:43:01.312Z,10.17
2023-05-21T11:45:32.302Z,10.20
2023-05-21T11:48:01.769Z,9.87
2023-05-21T11:50:34.788Z,9.40
2023-05-21T11:53:09.281Z,11.43
2023-05-21T11:55:49.589Z,11.30
2023-05-21T11:58:21.724Z,11.63
2023-05-21T12:00:52.907Z,9.70
2023-05-21T12:03:26.936Z,10.20
2023-05-21T12:05:58.449Z,10.67
2023-05-21T12:08:27.287Z,11.30
2023-05-21T12:10:58.298Z,9.47
2023-05-21T12:13:32.188Z,12.10
2023-05-21T12:16:00.554Z,10.33
2023-05-21T12:18:30.349Z,11.73
2023-05-21T12:20:58.925Z,9.83
2023-05-21T12:23:27.807Z,9.70
2023-05-21T12:25:56.380Z,9.80
2023-05-21T12:28:25.184Z,10.97
2023-05-21T12:30:55.493Z,10.60
2023-05-21T12:33:33.551Z,11.20
2023-05-21T12:36:04.413Z,9.87
2023-05-21T12:38:33.510Z,9.70
2023-05-21T12:41:11.045Z,9.77
2023-05-21T12:43:41.833Z,9.37
2023-05-21T12:46:15.065Z,9.77
2023-05-21T12:48:49.327Z,8.87
2023-05-21T12:51:30.545Z,8.43
2023-05-21T12:54:02.292Z,10.00
2023-05-21T12:56:49.278Z,9.80
2023-05-21T12:59:19.973Z,8.70
2023-05-21T13:01:50.218Z,10.20
2023-05-21T13:04:28.409Z,9.60
2023-05-21T13:06:56.776Z,8.00
2023-05-21T13:09:28.936Z,7.70
2023-05-21T13:11:57.678Z,8.60
2023-05-21T13:14:26.179Z,7.37
2023-05-21T13:16:57.125Z,7.40
2023-05-21T13:19:29.074Z,9.40
2023-05-21T13:22:00.778Z,6.73
2023-05-21T13:24:29.434Z,7.37
2023-05-21T13:26:58.210Z,8.00
2023-05-21T13:29:27.279Z,6.87
2023-05-21T13:31:57.957Z,7.60
2023-05-21T13:34:26.603Z,8.27
2023-05-21T13:36:54.701Z,7.13
2023-05-21T13:39:27.122Z,7.40
2023-05-21T13:41:57.469Z,7.47
2023-05-21T13:44:27.702Z,6.10
2023-05-21T13:46:59.729Z,7.43
2023-05-21T13:49:28.553Z,6.90
2023-05-21T13:52:06.834Z,6.77
2023-05-21T13:54:35.120Z,7.70
2023-05-21T13:57:06.491Z,7.40
2023-05-21T13:59:34.511Z,8.07
2023-05-21T14:02:04.707Z,7.83
2023-05-21T14:04:47.185Z,7.23
2023-05-21T14:07:18.995Z,7.07
2023-05-21T14:09:48.759Z,6.20
2023-05-21T14:12:25.570Z,7.00
2023-05-21T14:14:58.753Z,7.30
2023-05-21T14:17:28.319Z,7.70
2023-05-21T14:19:56.938Z,7.03
2023-05-21T14:22:26.967Z,6.70
2023-05-21T14:24:57.850Z,7.37
2023-05-21T14:27:27.457Z,6.90
2023-05-21T14:29:56.061Z,9.10
2023-05-21T14:32:24.087Z,7.50
2023-05-21T14:34:55.335Z,7.67
2023-05-21T14:37:23.824Z,7.50
2023-05-21T14:39:52.191Z,7.57
2023-05-21T14:42:22.737Z,7.47
2023-05-21T14:44:53.971Z,7.97
2023-05-21T14:47:22.812Z,8.27
2023-05-21T14:49:54.017Z,7.17
2023-05-21T14:52:24.004Z,7.97
2023-05-21T14:54:53.301Z,7.17
2023-05-21T14:57:23.041Z,7.30
2023-05-21T14:59:52.833Z,6.90
2023-05-21T15:02:21.532Z,8.17
2023-05-21T15:04:50.901Z,7.63
2023-05-21T15:07:26.711Z,6.90
2023-05-21T15:10:03.798Z,6.73
2023-05-21T15:12:31.971Z,7.20
2023-05-21T15:14:59.901Z,6.40
2023-05-21T15:17:36.205Z,6.20
2023-05-21T15:20:04.709Z,5.90
2023-05-21T15:22:36.761Z,6.83
2023-05-21T15:25:31.415Z,5.70
2023-05-21T15:27:59.378Z,5.77
2023-05-21T15:30:28.331Z,7.10
2023-05-21T15:32:58.258Z,5.73
2023-05-21T15:35:26.302Z,5.93
2023-05-21T15:37:56.317Z,5.80
2023-05-21T15:40:32.091Z,5.40
2023-05-21T15:43:00.265Z,5.43
2023-05-21T15:45:35.199Z,5.80
2023-05-21T15:48:06.616Z,5.33
2023-05-21T15:50:38.166Z,5.73
2023-05-21T15:53:07.815Z,5.37
2023-05-21T15:55:45.436Z,5.63
2023-05-21T15:58:15.772Z,4.73
2023-05-21T16:00:43.907Z,4.87
2023-05-21T16:03:17.242Z,3.97
2023-05-21T16:05:45.047Z,5.07
2023-05-21T16:08:22.429Z,5.00
2023-05-21T16:10:51.126Z,4.20
2023-05-21T16:13:21.118Z,4.40
2023-05-21T16:16:03.139Z,5.33
2023-05-21T16:18:35.622Z,6.77
2023-05-21T16:21:03.591Z,6.10
2023-05-21T16:23:34.717Z,6.00
2023-05-21T16:26:03.024Z,7.20
2023-05-21T16:28:31.165Z,35.13
2023-05-21T16:31:00.482Z,6.43
2023-05-21T16:33:29.793Z,40.80
2023-05-21T16:36:00.944Z,19.13
2023-05-21T16:38:33.795Z,17.50
2023-05-21T16:41:05.171Z,12.00
2023-05-21T16:43:33.284Z,6.03
2023-05-21T16:46:01.434Z,8.30
2023-05-21T16:48:31.277Z,7.03
2023-05-21T16:51:00.708Z,7.70
2023-05-21T16:53:28.992Z,7.50
2023-05-21T16:55:56.816Z,7.20
2023-05-21T16:58:25.889Z,7.43
2023-05-21T17:00:53.609Z,7.30
2023-05-21T17:03:21.466Z,8.10
2023-05-21T17:05:49.281Z,9.37
2023-05-21T17:08:17.062Z,9.00
2023-05-21T17:10:44.853Z,8.80
2023-05-21T17:13:21.607Z,8.77
2023-05-21T17:15:53.038Z,8.47
2023-05-21T17:18:20.874Z,8.93
2023-05-21T17:20:48.713Z,10.10
2023-05-21T17:23:16.559Z,10.50
2023-05-21T17:25:44.564Z,9.00
2023-05-21T17:28:12.291Z,10.30
2023-05-21T17:30:40.011Z,9.90
2023-05-21T17:33:10.262Z,9.83
2023-05-21T17:35:38.719Z,10.00
2023-05-21T17:38:07.068Z,10.00
2023-05-21T17:40:34.796Z,7.90
2023-05-21T17:43:04.315Z,8.57
2023-05-21T17:45:32.197Z,8.60
2023-05-21T17:48:00.901Z,10.00
2023-05-21T17:50:30.155Z,10.57
2023-05-21T17:52:58.009Z,9.60
2023-05-21T17:55:25.754Z,9.40
2023-05-21T17:57:53.506Z,8.67
2023-05-21T18:00:21.875Z,9.47
2023-05-21T18:02:49.762Z,9.73
2023-05-21T18:05:17.658Z,9.37
2023-05-21T18:07:46.885Z,8.10
2023-05-21T18:10:18.702Z,8.57
2023-05-21T18:12:46.937Z,10.00
2023-05-21T18:15:15.670Z,9.50
2023-05-21T18:17:44.203Z,9.10
2023-05-21T18:20:13.508Z,9.40
2023-05-21T18:22:41.275Z,9.70
2023-05-21T18:25:11.090Z,10.73
2023-05-21T18:27:39.152Z,9.17
2023-05-21T18:30:08.451Z,10.23
2023-05-21T18:32:38.604Z,10.20
2023-05-21T18:35:08.126Z,10.70
2023-05-21T18:37:37.311Z,9.77
2023-05-21T18:40:07.390Z,10.70
2023-05-21T18:42:36.675Z,11.57
2023-05-21T18:45:07.960Z,11.57
2023-05-21T18:47:36.094Z,10.77
2023-05-21T18:50:04.037Z,10.33
2023-05-21T18:52:31.802Z,10.77
2023-05-21T18:54:59.514Z,9.73
2023-05-21T18:57:27.490Z,8.80
2023-05-21T18:59:58.336Z,9.60
2023-05-21T19:02:29.773Z,9.17
2023-05-21T19:04:57.757Z,9.20
2023-05-21T19:07:25.535Z,10.67
2023-05-21T19:09:54.057Z,9.23
2023-05-21T19:12:22.220Z,9.50
2023-05-21T19:14:50.042Z,9.33
2023-05-21T19:17:19.265Z,9.37
2023-05-21T19:19:47.152Z,10.10
2023-05-21T19:22:15.053Z,9.60
2023-05-21T19:24:45.290Z,9.60
2023-05-21T19:27:13.055Z,10.97
2023-05-21T19:29:40.884Z,11.20
2023-05-21T19:32:09.565Z,10.43
2023-05-21T19:34:38.947Z,10.70
2023-05-21T19:37:07.045Z,10.67
2023-05-21T19:39:38.981Z,11.73
2023-05-21T19:42:08.011Z,10.10
2023-05-21T19:44:36.270Z,10.40
2023-05-21T19:47:04.265Z,10.40
2023-05-21T19:49:32.213Z,11.03
2023-05-21T19:52:02.520Z,10.90
2023-05-21T19:54:30.334Z,11.70
2023-05-21T19:56:58.634Z,12.10
2023-05-21T19:59:26.985Z,11.67
2023-05-21T20:01:56.608Z,11.13
2023-05-21T20:04:24.554Z,11.53
2023-05-21T20:06:52.599Z,11.23
2023-05-21T20:09:21.720Z,12.30
2023-05-21T20:11:49.499Z,12.60
2023-05-21T20:14:17.398Z,11.50
2023-05-21T20:16:47.027Z,11.27
2023-05-21T20:19:15.305Z,12.67
2023-05-21T20:21:43.352Z,11.23
2023-05-21T20:24:12.056Z,11.20
2023-05-21T20:26:41.319Z,12.10
2023-05-21T20:29:09.086Z,11.33
2023-05-21T20:31:37.096Z,11.30
2023-05-21T20:34:07.534Z,11.23
2023-05-21T20:36:36.067Z,12.60
2023-05-21T20:39:04.963Z,11.43
2023-05-21T20:41:37.369Z,12.30
2023-05-21T20:44:07.511Z,10.97
2023-05-21T20:46:38.248Z,11.57
2023-05-21T20:49:06.657Z,12.03
2023-05-21T20:51:34.640Z,10.97
2023-05-21T20:54:02.560Z,11.47
2023-05-21T20:56:41.508Z,10.20
2023-05-21T20:59:12.513Z,11.57
2023-05-21T21:01:40.826Z,11.50
2023-05-21T21:04:09.445Z,10.67
2023-05-21T21:06:38.679Z,11.00
2023-05-21T21:09:08.613Z,12.23
2023-05-21T21:11:36.425Z,11.83
2023-05-21T21:14:04.316Z,10.97
2023-05-21T21:16:33.594Z,11.33
2023-05-21T21:19:01.777Z,12.13
2023-05-21T21:21:29.703Z,11.93
2023-05-21T21:23:57.527Z,11.27
2023-05-21T21:26:26.600Z,12.50
2023-05-21T21:28:56.245Z,11.23
2023-05-21T21:31:24.638Z,11.20
2023-05-21T21:33:53.971Z,12.17
2023-05-21T21:36:23.464Z,11.70
2023-05-21T21:38:51.209Z,11.67
2023-05-21T21:41:20.400Z,12.87
2023-05-21T21:43:48.262Z,12.77
2023-05-21T21:46:16.621Z,13.23
2023-05-21T21:48:44.454Z,13.37
2023-05-21T21:51:15.609Z,12.17
2023-05-21T21:53:43.392Z,13.70
2023-05-21T21:56:11.568Z,12.90
2023-05-21T21:58:39.337Z,13.30
2023-05-21T22:01:07.099Z,11.80
2023-05-21T22:03:35.023Z,13.27
2023-05-21T22:06:02.913Z,12.40
2023-05-21T22:08:32.089Z,12.17
2023-05-21T22:11:01.900Z,13.60
2023-05-21T22:13:30.074Z,12.17
2023-05-21T22:15:57.902Z,12.17
2023-05-21T22:18:39.612Z,12.90
2023-05-21T22:21:09.372Z,12.97
2023-05-21T22:23:39.371Z,12.97
2023-05-21T22:26:07.258Z,13.50
2023-05-21T22:28:35.097Z,13.23
2023-05-21T22:31:03.192Z,11.70
2023-05-21T22:33:31.325Z,11.70
2023-05-21T22:35:59.155Z,12.27
2023-05-21T22:38:26.856Z,13.13
2023-05-21T22:40:56.177Z,13.27
2023-05-21T22:43:24.023Z,12.80
2023-05-21T22:45:51.698Z,12.30
2023-05-21T22:48:22.142Z,12.37
2023-05-21T22:50:50.261Z,12.90
2023-05-21T22:53:18.729Z,13.97
2023-05-21T22:55:46.408Z,12.77
2023-05-21T22:58:15.542Z,13.20
2023-05-21T23:00:44.132Z,12.20
2023-05-21T23:03:12.427Z,11.50
2023-05-21T23:05:40.311Z,12.03
2023-05-21T23:08:08.151Z,12.17
2023-05-21T23:10:36.122Z,12.00
2023-05-21T23:13:03.876Z,13.13
2023-05-21T23:15:33.786Z,12.17
2023-05-21T23:18:03.988Z,12.97
2023-05-21T23:20:32.350Z,12.40
2023-05-21T23:23:00.191Z,13.13
2023-05-21T23:25:27.880Z,12.70
2023-05-21T23:27:55.717Z,11.97
2023-05-21T23:30:23.575Z,13.30
2023-05-21T23:32:53.201Z,12.07
2023-05-21T23:35:21.067Z,13.73
2023-05-21T23:37:48.979Z,11.90
2023-05-21T23:40:16.941Z,12.30
2023-05-21T23:42:44.839Z,13.93
2023-05-21T23:45:12.721Z,13.00
2023-05-21T23:47:40.733Z,12.60
2023-05-21T23:50:10.673Z,12.30
2023-05-21T23:52:38.492Z,12.70
2023-05-21T23:55:06.880Z,12.00
2023-05-21T23:57:35.208Z,12.30
